sensor_id;sensor_type;location;lat;lon;timestamp;P1;durP1;ratioP1;P2;durP2;ratioP2
3085;SDS011;52812;48.960;9.108;2023-04-03T00:01:08;3.80;;;3.03;;
3085;SDS011;52812;48.960;9.108;2023-04-03T00:03:34;3.70;;;3.00;;
3085;SDS011;52812;48.960;9.108;2023-04-03T00:06:00;4.03;;;3.10;;
3085;SDS011;52812;48.960;9.108;2023-04-03T00:08:26;4.83;;;3.20;;
3085;SDS011;52812;48.960;9.108;2023-04-03T00:10:51;2.80;;;2.60;;
3085;SDS011;52812;48.960;9.108;2023-04-03T00:13:17;3.10;;;2.80;;
3085;SDS011;52812;48.960;9.108;2023-04-03T00:15:43;3.07;;;2.77;;
3085;SDS011;52812;48.960;9.108;2023-04-03T00:18:08;3.10;;;2.80;;
3085;SDS011;52812;48.960;9.108;2023-04-03T00:20:34;3.50;;;2.90;;
3085;SDS011;52812;48.960;9.108;2023-04-03T00:23:00;3.30;;;2.50;;
3085;SDS011;52812;48.960;9.108;2023-04-03T00:25:26;3.50;;;3.20;;
3085;SDS011;52812;48.960;9.108;2023-04-03T00:27:52;3.90;;;2.83;;
3085;SDS011;52812;48.960;9.108;2023-04-03T00:30:18;3.53;;;2.87;;
3085;SDS011;52812;48.960;9.108;2023-04-03T00:32:46;9.20;;;3.13;;
3085;SDS011;52812;48.960;9.108;2023-04-03T00:35:16;3.87;;;2.83;;
3085;SDS011;52812;48.960;9.108;2023-04-03T00:37:44;3.80;;;2.93;;
3085;SDS011;52812;48.960;9.108;2023-04-03T00:40:10;4.83;;;3.00;;
3085;SDS011;52812;48.960;9.108;2023-04-03T00:42:39;3.73;;;3.00;;
3085;SDS011;52812;48.960;9.108;2023-04-03T00:45:23;4.43;;;2.97;;
3085;SDS011;52812;48.960;9.108;2023-04-03T00:47:57;4.13;;;2.90;;
3085;SDS011;52812;48.960;9.108;2023-04-03T00:50:25;3.63;;;2.90;;
3085;SDS011;52812;48.960;9.108;2023-04-03T00:52:52;3.00;;;2.70;;
3085;SDS011;52812;48.960;9.108;2023-04-03T00:55:18;4.73;;;2.90;;
3085;SDS011;52812;48.960;9.108;2023-04-03T00:57:44;3.97;;;3.13;;
3085;SDS011;52812;48.960;9.108;2023-04-03T01:00:12;3.73;;;3.00;;
3085;SDS011;52812;48.960;9.108;2023-04-03T01:02:42;4.00;;;3.20;;
3085;SDS011;52812;48.960;9.108;2023-04-03T01:05:08;3.70;;;3.03;;
3085;SDS011;52812;48.960;9.108;2023-04-03T01:07:34;5.83;;;2.77;;
3085;SDS011;52812;48.960;9.108;2023-04-03T01:10:03;3.97;;;3.33;;
3085;SDS011;52812;48.960;9.108;2023-04-03T01:12:32;3.87;;;2.87;;
3085;SDS011;52812;48.960;9.108;2023-04-03T01:17:48;3.27;;;2.97;;
3085;SDS011;52812;48.960;9.108;2023-04-03T01:20:33;4.10;;;2.90;;
3085;SDS011;52812;48.960;9.108;2023-04-03T01:25:47;3.07;;;2.77;;
3085;SDS011;52812;48.960;9.108;2023-04-03T01:28:33;3.07;;;2.50;;
3085;SDS011;52812;48.960;9.108;2023-04-03T01:33:28;3.67;;;3.00;;
3085;SDS011;52812;48.960;9.108;2023-04-03T01:35:55;3.10;;;2.77;;
3085;SDS011;52812;48.960;9.108;2023-04-03T01:38:20;3.67;;;2.90;;
3085;SDS011;52812;48.960;9.108;2023-04-03T01:40:46;2.67;;;2.43;;
3085;SDS011;52812;48.960;9.108;2023-04-03T01:43:11;3.03;;;2.73;;
3085;SDS011;52812;48.960;9.108;2023-04-03T01:45:37;5.73;;;3.03;;
3085;SDS011;52812;48.960;9.108;2023-04-03T01:48:02;4.50;;;3.10;;
3085;SDS011;52812;48.960;9.108;2023-04-03T01:50:29;5.23;;;3.17;;
3085;SDS011;52812;48.960;9.108;2023-04-03T01:52:55;3.70;;;2.90;;
3085;SDS011;52812;48.960;9.108;2023-04-03T01:55:20;8.30;;;3.03;;
3085;SDS011;52812;48.960;9.108;2023-04-03T01:57:46;3.77;;;2.97;;
3085;SDS011;52812;48.960;9.108;2023-04-03T02:00:11;3.50;;;3.07;;
3085;SDS011;52812;48.960;9.108;2023-04-03T02:02:37;4.10;;;3.07;;
3085;SDS011;52812;48.960;9.108;2023-04-03T02:05:03;7.37;;;3.13;;
3085;SDS011;52812;48.960;9.108;2023-04-03T02:07:29;4.27;;;2.70;;
3085;SDS011;52812;48.960;9.108;2023-04-03T02:09:54;3.10;;;2.80;;
3085;SDS011;52812;48.960;9.108;2023-04-03T02:12:20;4.10;;;3.03;;
3085;SDS011;52812;48.960;9.108;2023-04-03T02:14:46;3.13;;;2.83;;
3085;SDS011;52812;48.960;9.108;2023-04-03T02:17:11;3.53;;;2.90;;
3085;SDS011;52812;48.960;9.108;2023-04-03T02:19:37;3.53;;;2.90;;
3085;SDS011;52812;48.960;9.108;2023-04-03T02:22:03;3.30;;;3.00;;
3085;SDS011;52812;48.960;9.108;2023-04-03T02:24:29;4.20;;;2.97;;
3085;SDS011;52812;48.960;9.108;2023-04-03T02:26:55;3.80;;;3.03;;
3085;SDS011;52812;48.960;9.108;2023-04-03T02:29:20;3.07;;;2.77;;
3085;SDS011;52812;48.960;9.108;2023-04-03T02:31:46;5.93;;;3.00;;
3085;SDS011;52812;48.960;9.108;2023-04-03T02:34:11;4.50;;;3.20;;
3085;SDS011;52812;48.960;9.108;2023-04-03T02:36:37;3.40;;;2.80;;
3085;SDS011;52812;48.960;9.108;2023-04-03T02:39:03;5.10;;;3.20;;
3085;SDS011;52812;48.960;9.108;2023-04-03T02:41:28;3.30;;;3.00;;
3085;SDS011;52812;48.960;9.108;2023-04-03T02:43:59;3.70;;;3.13;;
3085;SDS011;52812;48.960;9.108;2023-04-03T02:46:30;3.00;;;2.57;;
3085;SDS011;52812;48.960;9.108;2023-04-03T02:48:56;4.47;;;3.23;;
3085;SDS011;52812;48.960;9.108;2023-04-03T02:51:21;3.13;;;2.83;;
3085;SDS011;52812;48.960;9.108;2023-04-03T02:53:48;4.20;;;3.03;;
3085;SDS011;52812;48.960;9.108;2023-04-03T02:56:14;3.57;;;2.73;;
3085;SDS011;52812;48.960;9.108;2023-04-03T02:58:40;5.47;;;3.30;;
3085;SDS011;52812;48.960;9.108;2023-04-03T03:01:06;4.03;;;3.20;;
3085;SDS011;52812;48.960;9.108;2023-04-03T03:03:32;4.10;;;3.00;;
3085;SDS011;52812;48.960;9.108;2023-04-03T03:06:01;3.70;;;3.27;;
3085;SDS011;52812;48.960;9.108;2023-04-03T03:08:31;3.90;;;2.90;;
3085;SDS011;52812;48.960;9.108;2023-04-03T03:10:57;3.30;;;3.00;;
3085;SDS011;52812;48.960;9.108;2023-04-03T03:13:23;5.67;;;2.90;;
3085;SDS011;52812;48.960;9.108;2023-04-03T03:15:48;5.77;;;3.30;;
3085;SDS011;52812;48.960;9.108;2023-04-03T03:18:14;3.80;;;2.97;;
3085;SDS011;52812;48.960;9.108;2023-04-03T03:20:40;7.73;;;3.57;;
3085;SDS011;52812;48.960;9.108;2023-04-03T03:23:05;3.77;;;3.00;;
3085;SDS011;52812;48.960;9.108;2023-04-03T03:25:31;4.67;;;2.83;;
3085;SDS011;52812;48.960;9.108;2023-04-03T03:27:56;5.50;;;3.23;;
3085;SDS011;52812;48.960;9.108;2023-04-03T03:30:22;3.50;;;3.17;;
3085;SDS011;52812;48.960;9.108;2023-04-03T03:32:48;3.87;;;3.17;;
3085;SDS011;52812;48.960;9.108;2023-04-03T03:35:13;4.03;;;3.00;;
3085;SDS011;52812;48.960;9.108;2023-04-03T03:37:39;3.63;;;2.87;;
3085;SDS011;52812;48.960;9.108;2023-04-03T03:40:05;3.03;;;2.83;;
3085;SDS011;52812;48.960;9.108;2023-04-03T03:42:31;4.00;;;3.10;;
3085;SDS011;52812;48.960;9.108;2023-04-03T03:44:56;3.20;;;2.90;;
3085;SDS011;52812;48.960;9.108;2023-04-03T03:47:22;3.77;;;3.03;;
3085;SDS011;52812;48.960;9.108;2023-04-03T03:49:47;4.17;;;2.73;;
3085;SDS011;52812;48.960;9.108;2023-04-03T03:52:13;4.40;;;3.20;;
3085;SDS011;52812;48.960;9.108;2023-04-03T03:54:39;4.13;;;3.07;;
3085;SDS011;52812;48.960;9.108;2023-04-03T03:57:04;4.03;;;3.40;;
3085;SDS011;52812;48.960;9.108;2023-04-03T03:59:30;3.27;;;2.90;;
3085;SDS011;52812;48.960;9.108;2023-04-03T04:01:56;3.43;;;3.13;;
3085;SDS011;52812;48.960;9.108;2023-04-03T04:04:21;6.43;;;3.23;;
3085;SDS011;52812;48.960;9.108;2023-04-03T04:06:47;5.47;;;3.10;;
3085;SDS011;52812;48.960;9.108;2023-04-03T04:09:12;3.50;;;2.90;;
3085;SDS011;52812;48.960;9.108;2023-04-03T04:11:38;3.60;;;2.80;;
3085;SDS011;52812;48.960;9.108;2023-04-03T04:14:05;4.63;;;2.80;;
3085;SDS011;52812;48.960;9.108;2023-04-03T04:16:31;4.13;;;2.83;;
3085;SDS011;52812;48.960;9.108;2023-04-03T04:18:57;3.77;;;3.47;;
3085;SDS011;52812;48.960;9.108;2023-04-03T04:21:22;3.37;;;3.07;;
3085;SDS011;52812;48.960;9.108;2023-04-03T04:23:48;4.20;;;3.13;;
3085;SDS011;52812;48.960;9.108;2023-04-03T04:26:13;3.13;;;2.83;;
3085;SDS011;52812;48.960;9.108;2023-04-03T04:28:39;3.30;;;3.00;;
3085;SDS011;52812;48.960;9.108;2023-04-03T04:31:04;3.50;;;3.00;;
3085;SDS011;52812;48.960;9.108;2023-04-03T04:33:30;2.93;;;2.63;;
3085;SDS011;52812;48.960;9.108;2023-04-03T04:35:55;4.60;;;3.60;;
3085;SDS011;52812;48.960;9.108;2023-04-03T04:38:21;3.27;;;2.97;;
3085;SDS011;52812;48.960;9.108;2023-04-03T04:40:47;3.83;;;2.97;;
3085;SDS011;52812;48.960;9.108;2023-04-03T04:43:13;3.90;;;3.10;;
3085;SDS011;52812;48.960;9.108;2023-04-03T04:45:39;4.20;;;3.30;;
3085;SDS011;52812;48.960;9.108;2023-04-03T04:48:05;3.43;;;2.83;;
3085;SDS011;52812;48.960;9.108;2023-04-03T04:50:31;3.90;;;2.90;;
3085;SDS011;52812;48.960;9.108;2023-04-03T04:52:56;6.00;;;3.00;;
3085;SDS011;52812;48.960;9.108;2023-04-03T04:55:22;3.93;;;3.00;;
3085;SDS011;52812;48.960;9.108;2023-04-03T04:57:47;4.23;;;3.00;;
3085;SDS011;52812;48.960;9.108;2023-04-03T05:00:13;4.73;;;3.00;;
3085;SDS011;52812;48.960;9.108;2023-04-03T05:02:39;4.10;;;3.13;;
3085;SDS011;52812;48.960;9.108;2023-04-03T05:05:05;3.97;;;3.20;;
3085;SDS011;52812;48.960;9.108;2023-04-03T05:07:31;4.27;;;3.40;;
3085;SDS011;52812;48.960;9.108;2023-04-03T05:09:56;4.43;;;3.33;;
3085;SDS011;52812;48.960;9.108;2023-04-03T05:12:22;4.50;;;3.20;;
3085;SDS011;52812;48.960;9.108;2023-04-03T05:14:48;3.87;;;3.07;;
3085;SDS011;52812;48.960;9.108;2023-04-03T05:17:14;3.00;;;2.70;;
3085;SDS011;52812;48.960;9.108;2023-04-03T05:19:40;3.40;;;3.10;;
3085;SDS011;52812;48.960;9.108;2023-04-03T05:22:05;4.03;;;3.40;;
3085;SDS011;52812;48.960;9.108;2023-04-03T05:24:31;3.80;;;3.07;;
3085;SDS011;52812;48.960;9.108;2023-04-03T05:26:56;3.50;;;3.17;;
3085;SDS011;52812;48.960;9.108;2023-04-03T05:29:22;3.90;;;3.23;;
3085;SDS011;52812;48.960;9.108;2023-04-03T05:31:51;3.43;;;2.93;;
3085;SDS011;52812;48.960;9.108;2023-04-03T05:34:16;5.10;;;3.50;;
3085;SDS011;52812;48.960;9.108;2023-04-03T05:36:42;4.70;;;3.00;;
3085;SDS011;52812;48.960;9.108;2023-04-03T05:39:08;4.27;;;3.20;;
3085;SDS011;52812;48.960;9.108;2023-04-03T05:41:33;4.60;;;3.17;;
3085;SDS011;52812;48.960;9.108;2023-04-03T05:43:59;3.57;;;3.27;;
3085;SDS011;52812;48.960;9.108;2023-04-03T05:46:25;3.53;;;3.00;;
3085;SDS011;52812;48.960;9.108;2023-04-03T05:48:51;4.37;;;3.17;;
3085;SDS011;52812;48.960;9.108;2023-04-03T05:51:17;4.57;;;3.40;;
3085;SDS011;52812;48.960;9.108;2023-04-03T05:53:45;4.97;;;3.40;;
3085;SDS011;52812;48.960;9.108;2023-04-03T05:56:12;4.30;;;3.30;;
3085;SDS011;52812;48.960;9.108;2023-04-03T05:58:38;8.33;;;3.30;;
3085;SDS011;52812;48.960;9.108;2023-04-03T06:01:03;3.50;;;3.07;;
3085;SDS011;52812;48.960;9.108;2023-04-03T06:03:30;5.37;;;3.30;;
3085;SDS011;52812;48.960;9.108;2023-04-03T06:05:56;3.77;;;3.20;;
3085;SDS011;52812;48.960;9.108;2023-04-03T06:08:21;4.83;;;3.20;;
3085;SDS011;52812;48.960;9.108;2023-04-03T06:10:48;3.13;;;2.80;;
3085;SDS011;52812;48.960;9.108;2023-04-03T06:13:15;4.90;;;3.17;;
3085;SDS011;52812;48.960;9.108;2023-04-03T06:15:40;3.70;;;3.00;;
3085;SDS011;52812;48.960;9.108;2023-04-03T06:18:06;3.63;;;2.83;;
3085;SDS011;52812;48.960;9.108;2023-04-03T06:20:33;4.23;;;3.07;;
3085;SDS011;52812;48.960;9.108;2023-04-03T06:22:58;3.23;;;2.80;;
3085;SDS011;52812;48.960;9.108;2023-04-03T06:25:24;3.83;;;3.17;;
3085;SDS011;52812;48.960;9.108;2023-04-03T06:27:50;3.63;;;3.33;;
3085;SDS011;52812;48.960;9.108;2023-04-03T06:30:15;4.90;;;3.37;;
3085;SDS011;52812;48.960;9.108;2023-04-03T06:32:41;4.50;;;3.00;;
3085;SDS011;52812;48.960;9.108;2023-04-03T06:35:07;3.37;;;3.07;;
3085;SDS011;52812;48.960;9.108;2023-04-03T06:37:33;4.73;;;3.47;;
3085;SDS011;52812;48.960;9.108;2023-04-03T06:39:59;3.90;;;3.40;;
3085;SDS011;52812;48.960;9.108;2023-04-03T06:42:25;3.90;;;3.10;;
3085;SDS011;52812;48.960;9.108;2023-04-03T06:44:51;3.60;;;3.17;;
3085;SDS011;52812;48.960;9.108;2023-04-03T06:47:17;5.30;;;3.43;;
3085;SDS011;52812;48.960;9.108;2023-04-03T06:49:43;5.23;;;3.43;;
3085;SDS011;52812;48.960;9.108;2023-04-03T06:52:09;5.70;;;3.57;;
3085;SDS011;52812;48.960;9.108;2023-04-03T06:54:37;5.87;;;3.63;;
3085;SDS011;52812;48.960;9.108;2023-04-03T06:57:03;3.83;;;3.40;;
3085;SDS011;52812;48.960;9.108;2023-04-03T06:59:28;3.47;;;3.17;;
3085;SDS011;52812;48.960;9.108;2023-04-03T07:01:54;5.27;;;3.70;;
3085;SDS011;52812;48.960;9.108;2023-04-03T07:04:20;5.60;;;3.40;;
3085;SDS011;52812;48.960;9.108;2023-04-03T07:06:46;4.47;;;3.37;;
3085;SDS011;52812;48.960;9.108;2023-04-03T07:09:12;3.47;;;3.17;;
3085;SDS011;52812;48.960;9.108;2023-04-03T07:11:39;3.53;;;3.20;;
3085;SDS011;52812;48.960;9.108;2023-04-03T07:14:05;4.73;;;3.53;;
3085;SDS011;52812;48.960;9.108;2023-04-03T07:16:32;4.23;;;3.33;;
3085;SDS011;52812;48.960;9.108;2023-04-03T07:18:58;6.43;;;3.60;;
3085;SDS011;52812;48.960;9.108;2023-04-03T07:21:24;4.70;;;3.77;;
3085;SDS011;52812;48.960;9.108;2023-04-03T07:23:50;4.83;;;3.40;;
3085;SDS011;52812;48.960;9.108;2023-04-03T07:26:16;6.50;;;4.00;;
3085;SDS011;52812;48.960;9.108;2023-04-03T07:28:41;9.60;;;4.20;;
3085;SDS011;52812;48.960;9.108;2023-04-03T07:31:11;3.87;;;3.40;;
3085;SDS011;52812;48.960;9.108;2023-04-03T07:33:38;3.90;;;3.33;;
3085;SDS011;52812;48.960;9.108;2023-04-03T07:36:05;8.70;;;3.70;;
3085;SDS011;52812;48.960;9.108;2023-04-03T07:38:34;4.17;;;3.70;;
3085;SDS011;52812;48.960;9.108;2023-04-03T07:41:01;4.17;;;3.77;;
3085;SDS011;52812;48.960;9.108;2023-04-03T07:43:27;3.50;;;3.07;;
3085;SDS011;52812;48.960;9.108;2023-04-03T07:45:52;5.23;;;3.70;;
3085;SDS011;52812;48.960;9.108;2023-04-03T07:48:23;4.37;;;3.70;;
3085;SDS011;52812;48.960;9.108;2023-04-03T07:50:50;4.70;;;3.37;;
3085;SDS011;52812;48.960;9.108;2023-04-03T07:53:16;4.67;;;3.80;;
3085;SDS011;52812;48.960;9.108;2023-04-03T07:55:42;3.90;;;3.50;;
3085;SDS011;52812;48.960;9.108;2023-04-03T07:58:09;5.83;;;3.77;;
3085;SDS011;52812;48.960;9.108;2023-04-03T08:00:35;5.30;;;3.90;;
3085;SDS011;52812;48.960;9.108;2023-04-03T08:03:06;5.40;;;4.10;;
3085;SDS011;52812;48.960;9.108;2023-04-03T08:05:36;5.83;;;3.80;;
3085;SDS011;52812;48.960;9.108;2023-04-03T08:08:02;7.00;;;4.30;;
3085;SDS011;52812;48.960;9.108;2023-04-03T08:10:29;4.60;;;3.53;;
3085;SDS011;52812;48.960;9.108;2023-04-03T08:12:56;4.00;;;3.53;;
3085;SDS011;52812;48.960;9.108;2023-04-03T08:15:21;4.97;;;3.80;;
3085;SDS011;52812;48.960;9.108;2023-04-03T08:17:47;5.63;;;3.47;;
3085;SDS011;52812;48.960;9.108;2023-04-03T08:20:13;5.50;;;3.53;;
3085;SDS011;52812;48.960;9.108;2023-04-03T08:22:39;5.63;;;3.90;;
3085;SDS011;52812;48.960;9.108;2023-04-03T08:25:04;7.40;;;4.20;;
3085;SDS011;52812;48.960;9.108;2023-04-03T08:27:30;4.03;;;3.63;;
3085;SDS011;52812;48.960;9.108;2023-04-03T08:29:56;5.10;;;3.50;;
3085;SDS011;52812;48.960;9.108;2023-04-03T08:32:22;5.60;;;4.00;;
3085;SDS011;52812;48.960;9.108;2023-04-03T08:34:49;5.63;;;4.00;;
3085;SDS011;52812;48.960;9.108;2023-04-03T08:37:14;7.17;;;3.80;;
3085;SDS011;52812;48.960;9.108;2023-04-03T08:39:41;5.00;;;3.77;;
3085;SDS011;52812;48.960;9.108;2023-04-03T08:42:12;5.07;;;4.10;;
3085;SDS011;52812;48.960;9.108;2023-04-03T08:44:52;4.50;;;3.60;;
3085;SDS011;52812;48.960;9.108;2023-04-03T08:47:42;4.87;;;4.00;;
3085;SDS011;52812;48.960;9.108;2023-04-03T08:50:33;5.10;;;3.90;;
3085;SDS011;52812;48.960;9.108;2023-04-03T08:53:04;6.23;;;3.93;;
3085;SDS011;52812;48.960;9.108;2023-04-03T08:55:40;4.13;;;3.50;;
3085;SDS011;52812;48.960;9.108;2023-04-03T08:58:13;5.10;;;3.40;;
3085;SDS011;52812;48.960;9.108;2023-04-03T09:03:29;5.50;;;3.37;;
3085;SDS011;52812;48.960;9.108;2023-04-03T09:08:46;4.67;;;3.37;;
3085;SDS011;52812;48.960;9.108;2023-04-03T09:14:22;3.97;;;3.33;;
3085;SDS011;52812;48.960;9.108;2023-04-03T09:22:41;3.40;;;3.00;;
3085;SDS011;52812;48.960;9.108;2023-04-03T09:25:13;4.80;;;4.13;;
3085;SDS011;52812;48.960;9.108;2023-04-03T09:27:39;7.07;;;3.53;;
3085;SDS011;52812;48.960;9.108;2023-04-03T09:30:05;4.57;;;3.83;;
3085;SDS011;52812;48.960;9.108;2023-04-03T09:32:35;6.83;;;3.10;;
3085;SDS011;52812;48.960;9.108;2023-04-03T09:35:03;4.30;;;3.27;;
3085;SDS011;52812;48.960;9.108;2023-04-03T09:37:42;4.70;;;3.80;;
3085;SDS011;52812;48.960;9.108;2023-04-03T09:42:51;4.10;;;3.60;;
3085;SDS011;52812;48.960;9.108;2023-04-03T09:45:43;4.83;;;3.30;;
3085;SDS011;52812;48.960;9.108;2023-04-03T09:53:34;5.33;;;3.27;;
3085;SDS011;52812;48.960;9.108;2023-04-03T09:56:26;3.37;;;3.07;;
3085;SDS011;52812;48.960;9.108;2023-04-03T09:59:06;3.73;;;3.10;;
3085;SDS011;52812;48.960;9.108;2023-04-03T10:01:39;5.30;;;3.30;;
3085;SDS011;52812;48.960;9.108;2023-04-03T10:04:09;3.40;;;3.10;;
3085;SDS011;52812;48.960;9.108;2023-04-03T10:06:40;3.83;;;3.30;;
3085;SDS011;52812;48.960;9.108;2023-04-03T10:09:20;3.90;;;3.50;;
3085;SDS011;52812;48.960;9.108;2023-04-03T10:12:05;3.67;;;3.10;;
3085;SDS011;52812;48.960;9.108;2023-04-03T10:14:34;5.07;;;3.17;;
3085;SDS011;52812;48.960;9.108;2023-04-03T10:22:37;3.90;;;3.03;;
3085;SDS011;52812;48.960;9.108;2023-04-03T10:25:28;5.83;;;3.10;;
3085;SDS011;52812;48.960;9.108;2023-04-03T10:44:35;5.57;;;3.20;;
3085;SDS011;52812;48.960;9.108;2023-04-03T10:47:04;5.27;;;3.67;;
3085;SDS011;52812;48.960;9.108;2023-04-03T10:49:56;5.00;;;3.77;;
3085;SDS011;52812;48.960;9.108;2023-04-03T10:53:31;3.90;;;3.00;;
3085;SDS011;52812;48.960;9.108;2023-04-03T10:55:53;3.83;;;3.43;;
3085;SDS011;52812;48.960;9.108;2023-04-03T10:58:41;3.70;;;3.10;;
3085;SDS011;52812;48.960;9.108;2023-04-03T11:01:11;4.47;;;3.67;;
3085;SDS011;52812;48.960;9.108;2023-04-03T11:03:57;4.57;;;3.20;;
3085;SDS011;52812;48.960;9.108;2023-04-03T11:06:26;3.57;;;3.27;;
3085;SDS011;52812;48.960;9.108;2023-04-03T11:11:33;4.23;;;3.30;;
3085;SDS011;52812;48.960;9.108;2023-04-03T11:16:46;3.50;;;3.20;;
3085;SDS011;52812;48.960;9.108;2023-04-03T11:19:17;3.40;;;2.80;;
3085;SDS011;52812;48.960;9.108;2023-04-03T11:21:57;3.13;;;2.83;;
3085;SDS011;52812;48.960;9.108;2023-04-03T11:24:31;4.30;;;3.07;;
3085;SDS011;52812;48.960;9.108;2023-04-03T11:26:58;3.63;;;2.93;;
3085;SDS011;52812;48.960;9.108;2023-04-03T11:29:35;5.70;;;3.13;;
3085;SDS011;52812;48.960;9.108;2023-04-03T11:32:08;5.47;;;3.40;;
3085;SDS011;52812;48.960;9.108;2023-04-03T11:35:00;3.33;;;2.87;;
3085;SDS011;52812;48.960;9.108;2023-04-03T11:37:43;3.57;;;2.60;;
3085;SDS011;52812;48.960;9.108;2023-04-03T11:42:43;4.90;;;3.00;;
3085;SDS011;52812;48.960;9.108;2023-04-03T11:47:50;5.57;;;2.80;;
3085;SDS011;52812;48.960;9.108;2023-04-03T12:05:50;2.80;;;2.60;;
3085;SDS011;52812;48.960;9.108;2023-04-03T12:08:27;3.03;;;2.40;;
3085;SDS011;52812;48.960;9.108;2023-04-03T12:13:42;3.00;;;2.57;;
3085;SDS011;52812;48.960;9.108;2023-04-03T12:24:28;2.60;;;2.40;;
3085;SDS011;52812;48.960;9.108;2023-04-03T12:29:29;3.13;;;2.47;;
3085;SDS011;52812;48.960;9.108;2023-04-03T12:37:03;3.63;;;2.73;;
3085;SDS011;52812;48.960;9.108;2023-04-03T12:39:48;3.03;;;2.60;;
3085;SDS011;52812;48.960;9.108;2023-04-03T12:45:36;2.70;;;2.37;;
3085;SDS011;52812;48.960;9.108;2023-04-03T12:47:53;3.70;;;2.80;;
3085;SDS011;52812;48.960;9.108;2023-04-03T12:50:30;3.10;;;2.30;;
3085;SDS011;52812;48.960;9.108;2023-04-03T12:53:05;2.63;;;2.43;;
3085;SDS011;52812;48.960;9.108;2023-04-03T12:55:32;2.73;;;2.23;;
3085;SDS011;52812;48.960;9.108;2023-04-03T12:58:12;3.00;;;2.50;;
3085;SDS011;52812;48.960;9.108;2023-04-03T13:01:00;2.73;;;2.47;;
3085;SDS011;52812;48.960;9.108;2023-04-03T13:03:27;5.60;;;2.43;;
3085;SDS011;52812;48.960;9.108;2023-04-03T13:05:55;2.80;;;2.27;;
3085;SDS011;52812;48.960;9.108;2023-04-03T13:08:24;2.77;;;2.30;;
3085;SDS011;52812;48.960;9.108;2023-04-03T13:11:01;4.97;;;2.20;;
3085;SDS011;52812;48.960;9.108;2023-04-03T13:13:33;3.00;;;2.40;;
3085;SDS011;52812;48.960;9.108;2023-04-03T13:15:59;2.60;;;2.37;;
3085;SDS011;52812;48.960;9.108;2023-04-03T13:18:26;4.07;;;2.40;;
3085;SDS011;52812;48.960;9.108;2023-04-03T13:21:18;3.80;;;2.23;;
3085;SDS011;52812;48.960;9.108;2023-04-03T13:23:45;4.20;;;2.47;;
3085;SDS011;52812;48.960;9.108;2023-04-03T13:26:15;3.63;;;2.20;;
3085;SDS011;52812;48.960;9.108;2023-04-03T13:28:42;2.90;;;2.30;;
3085;SDS011;52812;48.960;9.108;2023-04-03T13:33:38;3.13;;;2.50;;
3085;SDS011;52812;48.960;9.108;2023-04-03T13:36:28;3.67;;;2.53;;
3085;SDS011;52812;48.960;9.108;2023-04-03T13:39:04;3.53;;;2.47;;
3085;SDS011;52812;48.960;9.108;2023-04-03T13:41:41;2.50;;;2.30;;
3085;SDS011;52812;48.960;9.108;2023-04-03T13:44:29;3.10;;;2.47;;
3085;SDS011;52812;48.960;9.108;2023-04-03T13:47:21;3.50;;;2.37;;
3085;SDS011;52812;48.960;9.108;2023-04-03T13:55:22;4.63;;;2.23;;
3085;SDS011;52812;48.960;9.108;2023-04-03T13:57:52;3.17;;;2.33;;
3085;SDS011;52812;48.960;9.108;2023-04-03T14:03:13;2.70;;;2.50;;
3085;SDS011;52812;48.960;9.108;2023-04-03T14:05:45;2.30;;;2.10;;
3085;SDS011;52812;48.960;9.108;2023-04-03T14:08:10;3.57;;;2.40;;
3085;SDS011;52812;48.960;9.108;2023-04-03T14:10:36;5.80;;;2.60;;
3085;SDS011;52812;48.960;9.108;2023-04-03T14:13:02;3.00;;;2.53;;
3085;SDS011;52812;48.960;9.108;2023-04-03T14:15:28;3.53;;;2.40;;
3085;SDS011;52812;48.960;9.108;2023-04-03T14:17:56;3.50;;;2.70;;
3085;SDS011;52812;48.960;9.108;2023-04-03T14:20:24;3.30;;;2.60;;
3085;SDS011;52812;48.960;9.108;2023-04-03T14:22:51;2.93;;;2.00;;
3085;SDS011;52812;48.960;9.108;2023-04-03T14:25:17;2.77;;;2.57;;
3085;SDS011;52812;48.960;9.108;2023-04-03T14:27:45;3.43;;;2.43;;
3085;SDS011;52812;48.960;9.108;2023-04-03T14:30:18;4.90;;;3.00;;
3085;SDS011;52812;48.960;9.108;2023-04-03T14:32:47;4.43;;;2.50;;
3085;SDS011;52812;48.960;9.108;2023-04-03T14:35:13;4.33;;;2.60;;
3085;SDS011;52812;48.960;9.108;2023-04-03T14:37:40;3.53;;;2.50;;
3085;SDS011;52812;48.960;9.108;2023-04-03T14:40:06;2.63;;;2.27;;
3085;SDS011;52812;48.960;9.108;2023-04-03T14:42:34;3.47;;;2.30;;
3085;SDS011;52812;48.960;9.108;2023-04-03T14:45:03;3.17;;;2.40;;
3085;SDS011;52812;48.960;9.108;2023-04-03T14:47:31;3.43;;;2.77;;
3085;SDS011;52812;48.960;9.108;2023-04-03T14:49:57;2.90;;;2.40;;
3085;SDS011;52812;48.960;9.108;2023-04-03T14:52:32;4.53;;;2.60;;
3085;SDS011;52812;48.960;9.108;2023-04-03T14:55:00;2.60;;;2.40;;
3085;SDS011;52812;48.960;9.108;2023-04-03T14:57:29;4.87;;;2.93;;
3085;SDS011;52812;48.960;9.108;2023-04-03T14:59:55;2.93;;;2.37;;
3085;SDS011;52812;48.960;9.108;2023-04-03T15:02:26;3.80;;;2.40;;
3085;SDS011;52812;48.960;9.108;2023-04-03T15:04:56;3.20;;;2.80;;
3085;SDS011;52812;48.960;9.108;2023-04-03T15:07:23;3.37;;;2.40;;
3085;SDS011;52812;48.960;9.108;2023-04-03T15:09:51;3.17;;;2.33;;
3085;SDS011;52812;48.960;9.108;2023-04-03T15:12:17;4.10;;;2.70;;
3085;SDS011;52812;48.960;9.108;2023-04-03T15:14:43;3.90;;;2.47;;
3085;SDS011;52812;48.960;9.108;2023-04-03T15:17:14;3.50;;;2.70;;
3085;SDS011;52812;48.960;9.108;2023-04-03T15:19:42;3.67;;;2.50;;
3085;SDS011;52812;48.960;9.108;2023-04-03T15:22:15;3.27;;;2.73;;
3085;SDS011;52812;48.960;9.108;2023-04-03T15:24:43;3.13;;;2.83;;
3085;SDS011;52812;48.960;9.108;2023-04-03T15:27:09;2.83;;;2.47;;
3085;SDS011;52812;48.960;9.108;2023-04-03T15:29:38;2.63;;;2.27;;
3085;SDS011;52812;48.960;9.108;2023-04-03T15:32:05;3.43;;;2.50;;
3085;SDS011;52812;48.960;9.108;2023-04-03T15:34:31;2.60;;;2.40;;
3085;SDS011;52812;48.960;9.108;2023-04-03T15:36:57;3.27;;;2.40;;
3085;SDS011;52812;48.960;9.108;2023-04-03T15:39:24;3.37;;;2.60;;
3085;SDS011;52812;48.960;9.108;2023-04-03T15:41:50;2.60;;;2.33;;
3085;SDS011;52812;48.960;9.108;2023-04-03T15:44:17;3.93;;;2.30;;
3085;SDS011;52812;48.960;9.108;2023-04-03T15:46:43;3.00;;;2.53;;
3085;SDS011;52812;48.960;9.108;2023-04-03T15:49:10;3.60;;;2.70;;
3085;SDS011;52812;48.960;9.108;2023-04-03T15:51:36;2.60;;;2.40;;
3085;SDS011;52812;48.960;9.108;2023-04-03T15:54:02;4.97;;;2.80;;
3085;SDS011;52812;48.960;9.108;2023-04-03T15:56:28;2.63;;;2.37;;
3085;SDS011;52812;48.960;9.108;2023-04-03T15:58:53;2.30;;;2.10;;
3085;SDS011;52812;48.960;9.108;2023-04-03T16:01:19;2.97;;;2.37;;
3085;SDS011;52812;48.960;9.108;2023-04-03T16:03:45;4.13;;;2.63;;
3085;SDS011;52812;48.960;9.108;2023-04-03T16:06:15;4.10;;;2.50;;
3085;SDS011;52812;48.960;9.108;2023-04-03T16:08:41;3.50;;;2.40;;
3085;SDS011;52812;48.960;9.108;2023-04-03T16:11:07;4.47;;;2.73;;
3085;SDS011;52812;48.960;9.108;2023-04-03T16:13:33;4.90;;;2.83;;
3085;SDS011;52812;48.960;9.108;2023-04-03T16:15:59;3.07;;;2.60;;
3085;SDS011;52812;48.960;9.108;2023-04-03T16:18:26;3.40;;;2.90;;
3085;SDS011;52812;48.960;9.108;2023-04-03T16:20:52;3.53;;;2.50;;
3085;SDS011;52812;48.960;9.108;2023-04-03T16:23:18;3.20;;;2.40;;
3085;SDS011;52812;48.960;9.108;2023-04-03T16:25:44;2.90;;;2.30;;
3085;SDS011;52812;48.960;9.108;2023-04-03T16:28:11;3.00;;;2.33;;
3085;SDS011;52812;48.960;9.108;2023-04-03T16:30:39;2.93;;;2.60;;
3085;SDS011;52812;48.960;9.108;2023-04-03T16:33:05;4.23;;;2.33;;
3085;SDS011;52812;48.960;9.108;2023-04-03T16:35:31;2.57;;;2.33;;
3085;SDS011;52812;48.960;9.108;2023-04-03T16:37:56;3.73;;;2.60;;
3085;SDS011;52812;48.960;9.108;2023-04-03T16:40:22;2.60;;;2.40;;
3085;SDS011;52812;48.960;9.108;2023-04-03T16:42:47;5.03;;;2.30;;
3085;SDS011;52812;48.960;9.108;2023-04-03T16:45:13;4.00;;;2.80;;
3085;SDS011;52812;48.960;9.108;2023-04-03T16:47:39;2.90;;;2.60;;
3085;SDS011;52812;48.960;9.108;2023-04-03T16:50:05;4.90;;;2.60;;
3085;SDS011;52812;48.960;9.108;2023-04-03T16:52:31;3.47;;;2.77;;
3085;SDS011;52812;48.960;9.108;2023-04-03T16:54:56;3.30;;;2.50;;
3085;SDS011;52812;48.960;9.108;2023-04-03T16:57:23;6.13;;;3.10;;
3085;SDS011;52812;48.960;9.108;2023-04-03T16:59:50;3.80;;;2.70;;